Time;durP1;ratioP1;P1;durP2;ratioP2;P2;SDS_P1;SDS_P2;PMS_P1;PMS_P2;Temp;Humidity;BMP_temperature;BMP_pressure;BME280_temperature;BME280_humidity;BME280_pressure;Samples;Min_cycle;Max_cycle;Signal;HPM_P1;HPM_P2
2022/09/29 06:12:01;;;;;;;;;5.00;5.00;;;;;12.08;75.54;99657.03;5113897;27;45362;-64
2022/09/29 06:14:27;;;;;;;;;7.75;5.25;;;;;12.22;74.96;99654.28;5095903;27;45253;-64
2022/09/29 06:16:52;;;;;;;;;6.75;5.25;;;;;12.32;74.89;99654.50;5095748;27;45212;-64
2022/09/29 06:19:17;;;;;;;;;3.50;3.25;;;;;12.35;74.19;99643.50;5098697;27;45414;-65
2022/09/29 06:21:43;;;;;;;;;4.50;4.00;;;;;12.43;73.90;99642.00;5095104;27;46192;-64
2022/09/29 06:24:08;;;;;;;;;5.25;5.25;;;;;12.50;73.39;99663.94;5095927;27;52216;-65
2022/09/29 06:26:34;;;;;;;;;4.00;4.00;;;;;12.48;73.28;99660.50;5096151;27;45279;-65
2022/09/29 06:29:00;;;;;;;;;7.00;5.50;;;;;12.49;73.45;99662.22;5095991;27;46005;-65
2022/09/29 06:31:28;;;;;;;;;4.50;4.00;;;;;12.51;73.42;99661.13;5095433;27;46722;-65
2022/09/29 06:34:02;;;;;;;;;9.00;6.00;;;;;12.52;73.05;99664.69;5096167;27;45377;-65
2022/09/29 06:39:24;;;;;;;;;5.50;5.50;;;;;12.66;72.57;99664.56;5095409;27;45403;-65
2022/09/29 06:41:54;;;;;;;;;4.00;4.00;;;;;12.58;73.08;99653.50;5095678;27;45390;-62
2022/09/29 06:44:23;;;;;;;;;4.00;4.00;;;;;12.65;72.63;99667.38;5095672;27;45376;-63
2022/09/29 06:46:49;;;;;;;;;5.75;5.75;;;;;12.67;72.85;99668.13;5095189;27;45365;-63
2022/09/29 06:49:15;;;;;;;;;8.00;7.00;;;;;12.71;72.31;99666.91;5095205;27;45329;-63
2022/09/29 06:51:42;;;;;;;;;7.50;7.50;;;;;12.72;72.22;99668.63;5095346;27;46256;-64
2022/09/29 06:54:09;;;;;;;;;7.00;7.00;;;;;12.76;72.70;99667.47;5095348;27;45313;-62
2022/09/29 06:56:34;;;;;;;;;4.25;4.25;;;;;12.73;72.09;99652.41;5103226;27;45337;-63
2022/09/29 06:58:59;;;;;;;;;9.00;6.25;;;;;12.82;71.63;99662.50;5111949;27;45968;-63
2022/09/29 07:01:25;;;;;;;;;5.00;5.00;;;;;12.77;71.12;99661.94;5114949;27;45232;-63
2022/09/29 07:03:50;;;;;;;;;6.25;6.25;;;;;12.78;71.40;99674.44;5115326;27;45241;-63
2022/09/29 07:06:16;;;;;;;;;4.00;4.00;;;;;12.75;71.55;99674.66;5112920;27;45524;-64
2022/09/29 07:08:41;;;;;;;;;5.00;5.00;;;;;12.70;71.85;99670.56;5115474;27;45710;-63
2022/09/29 07:11:07;;;;;;;;;6.00;6.00;;;;;12.80;71.23;99679.72;5106347;27;46283;-63
2022/09/29 07:13:33;;;;;;;;;8.75;6.25;;;;;12.83;71.42;99682.19;5096928;27;45392;-62
2022/09/29 07:16:07;;;;;;;;;6.00;6.00;;;;;12.88;71.22;99680.00;5087826;27;45396;-63
2022/09/29 07:18:36;;;;;;;;;8.75;4.50;;;;;12.97;71.41;99679.34;5088592;27;45447;-63
2022/09/29 07:21:03;;;;;;;;;8.00;8.00;;;;;12.99;71.25;99690.88;5096738;27;47021;-63
2022/09/29 07:23:29;;;;;;;;;7.50;7.50;;;;;12.92;71.07;99678.84;5087658;27;45239;-63
2022/09/29 07:25:54;;;;;;;;;5.25;5.00;;;;;12.97;71.64;99686.56;5081528;27;45375;-61
2022/09/29 07:28:20;;;;;;;;;7.00;7.00;;;;;12.88;71.11;99677.31;5081242;27;46082;-63
2022/09/29 07:30:45;;;;;;;;;11.25;5.25;;;;;12.80;71.33;99680.56;5080773;27;45235;-62
2022/09/29 07:33:11;;;;;;;;;10.00;8.25;;;;;12.86;71.86;99698.09;5081229;28;45381;-62
2022/09/29 07:35:37;;;;;;;;;8.50;7.75;;;;;12.87;71.29;99694.44;5082785;27;45448;-63
2022/09/29 07:38:02;;;;;;;;;10.50;10.25;;;;;12.90;71.66;99699.59;5100893;27;55697;-62
2022/09/29 07:40:27;;;;;;;;;8.75;8.75;;;;;13.02;71.15;99700.53;5081367;27;45370;-62
2022/09/29 07:42:53;;;;;;;;;9.00;7.00;;;;;13.11;71.30;99705.25;5081105;28;45346;-62
2022/09/29 07:45:18;;;;;;;;;9.25;9.25;;;;;13.12;70.73;99704.28;5081113;27;45334;-62
2022/09/29 07:47:44;;;;;;;;;9.50;9.50;;;;;13.15;70.29;99710.34;5087351;27;50241;-62
2022/09/29 07:50:11;;;;;;;;;8.75;8.75;;;;;13.19;70.86;99708.25;5094385;27;45957;-62
2022/09/29 07:52:36;;;;;;;;;14.25;8.25;;;;;13.22;70.97;99708.91;5081037;27;45310;-62
2022/09/29 07:55:02;;;;;;;;;5.25;5.25;;;;;13.36;70.27;99718.66;5081055;27;45373;-62
2022/09/29 07:57:29;;;;;;;;;13.50;12.00;;;;;13.38;70.05;99716.72;5080908;27;45413;-63
2022/09/29 07:59:57;;;;;;;;;11.00;8.50;;;;;13.46;68.99;99717.00;5080783;27;46206;-62
2022/09/29 08:02:23;;;;;;;;;11.00;9.75;;;;;13.52;69.20;99726.50;5087730;27;45426;-63
2022/09/29 08:04:48;;;;;;;;;12.00;9.50;;;;;13.43;69.43;99706.47;5086892;27;45320;-62
2022/09/29 08:07:14;;;;;;;;;13.25;10.25;;;;;13.51;69.08;99731.00;5093670;27;45503;-63
2022/09/29 08:09:39;;;;;;;;;13.25;12.00;;;;;13.43;68.70;99725.34;5093577;27;46122;-64
2022/09/29 08:12:04;;;;;;;;;12.25;12.00;;;;;13.47;68.48;99732.19;5093761;27;45308;-62
2022/09/29 08:14:30;;;;;;;;;8.50;8.50;;;;;13.55;68.73;99731.63;5080565;27;45495;-62
2022/09/29 08:16:55;;;;;;;;;9.50;9.50;;;;;13.62;68.45;99736.44;5080325;27;45397;-63
2022/09/29 08:19:20;;;;;;;;;10.00;10.00;;;;;13.68;68.38;99737.84;5080147;28;46162;-63
2022/09/29 08:21:48;;;;;;;;;9.25;7.50;;;;;13.70;67.72;99732.31;5100747;27;45366;-63
2022/09/29 08:24:14;;;;;;;;;10.00;9.50;;;;;13.74;67.83;99742.75;5085267;27;45403;-62
2022/09/29 08:26:40;;;;;;;;;13.50;13.50;;;;;13.78;67.70;99744.22;5080641;27;45243;-61
2022/09/29 08:29:05;;;;;;;;;9.25;9.25;;;;;13.77;67.25;99744.38;5080382;27;45366;-63
2022/09/29 08:31:30;;;;;;;;;10.00;10.00;;;;;13.87;67.06;99748.94;5080293;27;45242;-62
2022/09/29 08:34:00;;;;;;;;;7.25;7.25;;;;;13.90;66.85;99751.41;5084552;27;45310;-62
2022/09/29 08:36:26;;;;;;;;;12.00;12.00;;;;;13.89;66.38;99757.75;5100818;27;45332;-61
2022/09/29 08:38:53;;;;;;;;;8.50;8.50;;;;;13.95;65.75;99757.28;5099061;27;47089;-62
2022/09/29 08:41:18;;;;;;;;;11.75;8.50;;;;;13.96;65.37;99759.00;5080463;27;45419;-61
2022/09/29 08:43:46;;;;;;;;;7.00;7.00;;;;;14.09;65.54;99755.41;5080201;28;45291;-62
2022/09/29 08:46:29;;;;;;;;;8.75;7.25;;;;;14.26;65.98;99761.22;5079905;27;45557;-63
2022/09/29 08:48:58;;;;;;;;;7.25;7.25;;;;;14.42;65.40;99758.25;5080118;27;45592;-62
2022/09/29 08:51:38;;;;;;;;;9.00;8.00;;;;;14.55;64.24;99760.81;5080267;27;45367;-62
2022/09/29 08:54:14;;;;;;;;;6.50;6.50;;;;;14.55;62.88;99760.81;5080122;27;45284;-62
2022/09/29 08:56:39;;;;;;;;;6.50;6.50;;;;;14.48;63.31;99759.59;5080069;27;45237;-61
2022/09/29 08:59:09;;;;;;;;;7.00;5.75;;;;;14.47;63.24;99753.34;5079892;28;45181;-62
2022/09/29 09:02:06;;;;;;;;;5.25;5.25;;;;;14.68;62.92;99775.09;5080303;27;45351;-62
2022/09/29 09:04:56;;;;;;;;;7.00;5.00;;;;;14.75;62.50;99773.63;5099016;27;45350;-62
2022/09/29 09:07:55;;;;;;;;;6.75;5.00;;;;;14.77;62.77;99771.69;5100297;27;45550;-63
2022/09/29 09:10:29;;;;;;;;;6.00;6.00;;;;;14.91;62.58;99775.97;5092987;27;45416;-62
2022/09/29 09:13:13;;;;;;;;;6.50;6.25;;;;;14.96;62.15;99771.09;5086141;27;45318;-62
2022/09/29 09:16:08;;;;;;;;;6.75;6.75;;;;;15.00;62.49;99770.72;5079722;28;45440;-62
2022/09/29 09:18:49;;;;;;;;;6.50;6.50;;;;;14.99;62.03;99774.38;5086995;27;45333;-62
2022/09/29 09:21:24;;;;;;;;;5.75;5.75;;;;;14.96;61.85;99771.94;5099430;27;46142;-61
2022/09/29 09:23:55;;;;;;;;;6.50;5.50;;;;;14.81;62.21;99773.13;5089466;27;45300;-62
2022/09/29 09:26:38;;;;;;;;;7.00;6.25;;;;;14.81;62.68;99774.97;5079450;27;45338;-61
2022/09/29 09:29:10;;;;;;;;;6.00;6.00;;;;;14.73;62.74;99767.47;5079506;27;45241;-63
2022/09/29 09:31:43;;;;;;;;;2.00;1.75;;;;;14.68;62.90;99765.16;5079194;27;47145;-62
2022/09/29 09:34:21;;;;;;;;;6.75;5.50;;;;;14.82;62.99;99782.09;5078772;27;45387;-61
2022/09/29 09:36:49;;;;;;;;;5.75;5.75;;;;;14.92;63.01;99778.56;5088792;27;45333;-62
2022/09/29 09:39:25;;;;;;;;;6.00;6.00;;;;;14.98;62.89;99769.97;5095548;27;45341;-63
2022/09/29 09:41:55;;;;;;;;;7.50;6.50;;;;;15.02;62.64;99773.28;5079029;27;46452;-62
2022/09/29 09:44:37;;;;;;;;;4.00;4.00;;;;;15.12;62.13;99785.09;5079003;27;45282;-62
2022/09/29 09:47:12;;;;;;;;;6.00;6.00;;;;;15.14;61.88;99789.34;5079016;27;45299;-63
2022/09/29 09:49:43;;;;;;;;;5.25;5.25;;;;;15.15;61.61;99791.06;5079231;28;45362;-61
2022/09/29 09:52:19;;;;;;;;;5.00;5.00;;;;;15.22;62.08;99785.22;5077568;27;46577;-62
2022/09/29 09:54:54;;;;;;;;;6.00;4.50;;;;;15.24;61.34;99794.03;5078521;27;45329;-62
2022/09/29 09:57:32;;;;;;;;;7.50;6.50;;;;;15.25;61.46;99793.91;5078983;27;45397;-61
2022/09/29 09:59:59;;;;;;;;;6.25;5.50;;;;;15.28;61.57;99792.81;5078997;27;45359;-62
2022/09/29 10:02:24;;;;;;;;;8.25;4.50;;;;;15.32;61.16;99797.81;5086419;27;46911;-61
2022/09/29 10:04:52;;;;;;;;;5.75;5.75;;;;;15.37;61.13;99787.53;5084598;27;45353;-62
2022/09/29 10:07:19;;;;;;;;;7.00;5.50;;;;;15.39;59.88;99790.97;5092681;27;45502;-63
2022/09/29 10:09:45;;;;;;;;;4.75;4.75;;;;;15.49;60.18;99797.31;5091497;27;45501;-62
2022/09/29 10:12:19;;;;;;;;;3.25;3.25;;;;;15.56;60.39;99796.88;5091651;27;45447;-63
2022/09/29 10:15:03;;;;;;;;;5.00;5.00;;;;;15.59;58.95;99796.59;5098094;27;45376;-63
2022/09/29 10:17:36;;;;;;;;;5.00;5.00;;;;;15.58;58.93;99797.59;5097779;27;45432;-63
2022/09/29 10:20:05;;;;;;;;;6.00;5.25;;;;;15.62;58.61;99799.94;5098389;27;45475;-63
2022/09/29 10:22:31;;;;;;;;;7.00;5.50;;;;;15.66;58.41;99800.53;5099204;27;45351;-63
2022/09/29 10:25:17;;;;;;;;;6.00;5.00;;;;;15.65;58.08;99801.53;5079119;27;45267;-63
2022/09/29 10:27:47;;;;;;;;;5.00;5.00;;;;;15.71;58.23;99803.72;5077207;27;45359;-62
2022/09/29 10:30:39;;;;;;;;;5.00;5.00;;;;;15.77;58.50;99803.22;5078828;27;45991;-63
2022/09/29 10:33:16;;;;;;;;;6.75;6.00;;;;;15.82;57.67;99804.53;5078133;27;45409;-63
2022/09/29 10:35:45;;;;;;;;;7.00;7.00;;;;;15.91;57.45;99805.63;5078537;27;45344;-62
2022/09/29 10:38:17;;;;;;;;;6.25;6.25;;;;;15.95;57.66;99795.44;5079169;27;45470;-64
2022/09/29 10:41:03;;;;;;;;;7.00;7.00;;;;;16.08;56.91;99794.25;5077546;27;45441;-62
2022/09/29 10:43:42;;;;;;;;;6.00;5.00;;;;;16.08;57.07;99793.41;5078537;27;46493;-62
2022/09/29 10:46:48;;;;;;;;;4.25;4.25;;;;;16.10;56.52;99807.66;5085336;27;45372;-63
2022/09/29 10:49:18;;;;;;;;;7.75;7.75;;;;;16.00;57.66;99804.84;5060663;27;45562;-62
2022/09/29 10:51:53;;;;;;;;;10.75;9.25;;;;;15.88;58.67;99814.00;5102444;27;45384;-62
2022/09/29 10:54:24;;;;;;;;;10.00;8.50;;;;;15.69;58.39;99798.44;5101816;27;46509;-62
2022/09/29 10:56:50;;;;;;;;;8.00;8.00;;;;;15.64;59.21;99814.19;5101913;27;45249;-62
2022/09/29 10:59:17;;;;;;;;;10.50;6.50;;;;;15.56;58.78;99818.50;5102008;27;45471;-63
2022/09/29 11:01:49;;;;;;;;;8.00;8.00;;;;;15.52;59.46;99820.53;5102009;27;45903;-62
2022/09/29 11:04:38;;;;;;;;;9.25;9.25;;;;;15.40;60.31;99822.38;5092253;27;45723;-63
2022/09/29 11:07:10;;;;;;;;;8.00;8.00;;;;;15.31;60.66;99816.88;5093051;27;45373;-63
2022/09/29 11:09:41;;;;;;;;;7.25;7.25;;;;;15.22;61.05;99828.41;5095049;27;45300;-63
2022/09/29 11:12:32;;;;;;;;;6.00;6.00;;;;;15.12;61.67;99831.84;5081519;27;46049;-62
2022/09/29 11:14:59;;;;;;;;;6.50;5.00;;;;;15.06;62.55;99829.59;5081739;27;46181;-62
2022/09/29 11:17:26;;;;;;;;;5.00;5.00;;;;;15.00;62.31;99840.03;5081530;27;45268;-62
2022/09/29 11:19:53;;;;;;;;;7.50;7.50;;;;;14.94;63.94;99843.22;5084673;27;45345;-63
2022/09/29 11:22:48;;;;;;;;;5.00;5.00;;;;;14.84;63.67;99843.06;5101931;27;45457;-62
2022/09/29 11:25:32;;;;;;;;;4.00;3.00;;;;;14.78;63.06;99859.75;5093922;27;47153;-61
2022/09/29 11:28:35;;;;;;;;;6.25;6.25;;;;;14.69;62.53;99874.81;5081628;27;45326;-62
2022/09/29 11:31:16;;;;;;;;;5.25;5.25;;;;;14.61;63.31;99868.28;5081186;27;45331;-63
2022/09/29 11:34:00;;;;;;;;;5.25;5.25;;;;;14.54;64.49;99867.03;5081773;27;45516;-62
2022/09/29 11:36:25;;;;;;;;;6.00;6.00;;;;;14.47;65.86;99865.75;5087444;27;46244;-61
2022/09/29 11:39:22;;;;;;;;;7.25;6.25;;;;;14.41;66.33;99874.31;5101891;27;45358;-63
2022/09/29 11:42:13;;;;;;;;;9.00;7.50;;;;;14.34;67.12;99873.88;5090991;27;45418;-62
2022/09/29 11:44:47;;;;;;;;;8.50;8.50;;;;;14.29;68.20;99876.91;5089219;27;45544;-63
2022/09/29 11:47:42;;;;;;;;;9.75;9.25;;;;;14.26;68.61;99879.00;5101231;27;46369;-64
2022/09/29 11:50:37;;;;;;;;;13.25;12.50;;;;;14.25;69.46;99885.34;5102312;27;45220;-63
2022/09/29 11:53:17;;;;;;;;;11.25;9.75;;;;;14.21;69.33;99882.00;5087403;27;45397;-61
2022/09/29 11:55:57;;;;;;;;;11.00;11.00;;;;;14.21;69.42;99890.09;5101350;27;45930;-62
2022/09/29 11:58:28;;;;;;;;;13.50;13.50;;;;;14.19;69.97;99893.91;5101257;27;47407;-62
2022/09/29 12:01:01;;;;;;;;;16.75;13.75;;;;;14.16;70.45;99891.44;5100910;27;45419;-62
2022/09/29 12:03:34;;;;;;;;;19.00;16.75;;;;;14.15;71.47;99895.09;5098266;27;45222;-64
2022/09/29 12:06:24;;;;;;;;;14.00;12.00;;;;;14.14;71.31;99896.94;5083143;27;45484;-63
2022/09/29 12:09:14;;;;;;;;;12.00;12.00;;;;;14.15;71.21;99905.88;5081027;27;47041;-63
2022/09/29 12:11:49;;;;;;;;;8.75;8.75;;;;;14.16;70.00;99910.28;5083999;27;45275;-63
2022/09/29 12:14:24;;;;;;;;;11.50;8.75;;;;;14.18;70.04;99911.91;5101391;27;45213;-64
2022/09/29 12:17:05;;;;;;;;;9.00;9.00;;;;;14.18;68.55;99905.66;5080346;27;45235;-63
2022/09/29 12:19:36;;;;;;;;;10.75;8.25;;;;;14.24;68.33;99913.28;5080264;27;46120;-63
2022/09/29 12:22:06;;;;;;;;;9.25;7.00;;;;;14.25;67.72;99913.19;5080255;27;45340;-63
2022/09/29 12:24:36;;;;;;;;;9.75;8.00;;;;;14.26;66.98;99914.91;5080747;27;45374;-63
2022/09/29 12:27:12;;;;;;;;;6.50;6.50;;;;;14.26;66.60;99912.19;5080369;27;46000;-63
2022/09/29 12:29:45;;;;;;;;;5.50;5.50;;;;;14.28;66.00;99904.88;5080038;27;46093;-64
2022/09/29 12:32:17;;;;;;;;;8.00;7.50;;;;;14.25;65.89;99897.00;5080239;27;45440;-62
2022/09/29 12:34:54;;;;;;;;;7.75;6.75;;;;;14.27;66.66;99904.97;5087916;27;45396;-64
2022/09/29 12:37:43;;;;;;;;;13.25;6.50;;;;;14.26;66.78;99896.03;5100182;27;45341;-64
2022/09/29 12:40:18;;;;;;;;;7.75;6.75;;;;;14.30;67.25;99900.19;5088856;27;45404;-64
2022/09/29 12:43:25;;;;;;;;;10.25;6.75;;;;;14.30;67.92;99896.63;5080238;27;45393;-64
2022/09/29 12:46:15;;;;;;;;;9.00;9.00;;;;;14.30;68.26;99894.81;5089855;27;45539;-63
2022/09/29 12:49:02;;;;;;;;;9.25;9.25;;;;;14.31;68.38;99893.84;5100638;27;45425;-64
2022/09/29 12:51:43;;;;;;;;;8.50;7.50;;;;;14.25;68.28;99882.66;5100181;27;45333;-64
2022/09/29 12:54:27;;;;;;;;;6.50;6.50;;;;;14.17;68.64;99885.06;5080286;27;45334;-64
2022/09/29 12:57:14;;;;;;;;;6.00;6.00;;;;;14.18;68.06;99893.03;5079985;27;45401;-62
2022/09/29 12:59:54;;;;;;;;;7.00;6.75;;;;;14.22;68.45;99902.59;5080233;27;45239;-63
2022/09/29 13:02:50;;;;;;;;;10.25;7.25;;;;;14.30;68.32;99894.81;5086762;27;46615;-63
2022/09/29 13:05:40;;;;;;;;;7.75;7.75;;;;;14.37;68.62;99893.38;5082060;27;45593;-63
2022/09/29 13:08:30;;;;;;;;;7.50;7.25;;;;;14.45;68.46;99900.94;5099113;27;45267;-63
2022/09/29 13:11:16;;;;;;;;;5.25;5.25;;;;;14.59;69.16;99891.78;5097044;27;45506;-63
2022/09/29 13:14:10;;;;;;;;;8.25;6.25;;;;;14.74;68.88;99893.31;5092595;27;46069;-63
2022/09/29 13:16:56;;;;;;;;;4.75;4.75;;;;;14.92;67.80;99893.75;5079411;28;45302;-63
2022/09/29 13:19:21;;;;;;;;;4.00;4.00;;;;;15.04;63.81;99888.28;5047555;27;45376;-64
2022/09/29 13:22:05;;;;;;;;;3.00;3.00;;;;;15.13;62.94;99890.25;5079366;28;45367;-63
2022/09/29 13:24:54;;;;;;;;;6.00;6.00;;;;;15.25;63.67;99896.50;5079615;28;45347;-64
2022/09/29 13:27:19;;;;;;;;;4.50;3.50;;;;;15.35;62.63;99893.94;5079645;27;45249;-63
2022/09/29 13:30:03;;;;;;;;;4.50;3.00;;;;;15.42;63.01;99896.03;5079344;27;45719;-63
2022/09/29 13:32:31;;;;;;;;;3.00;3.00;;;;;15.51;63.69;99889.91;5095659;27;45422;-62
2022/09/29 13:35:00;;;;;;;;;6.00;5.50;;;;;15.69;61.68;99893.00;5099970;27;46335;-63
2022/09/29 13:37:41;;;;;;;;;4.00;4.00;;;;;15.83;60.92;99891.88;5099118;27;45400;-63
2022/09/29 13:40:14;;;;;;;;;5.25;5.25;;;;;15.97;60.98;99893.47;5088333;27;45287;-62
2022/09/29 13:42:48;;;;;;;;;4.75;4.75;;;;;16.12;60.41;99889.53;5079909;27;45373;-63
2022/09/29 13:45:15;;;;;;;;;7.00;6.50;;;;;16.24;60.66;99892.09;5099627;27;45284;-63
2022/09/29 13:47:48;;;;;;;;;6.25;5.00;;;;;16.34;58.62;99883.16;5092999;27;45340;-62
2022/09/29 13:50:39;;;;;;;;;5.50;5.50;;;;;16.50;58.67;99897.16;5079323;27;45366;-62
2022/09/29 13:53:30;;;;;;;;;5.25;5.25;;;;;16.67;59.50;99899.34;5084537;27;45338;-63
2022/09/29 13:56:01;;;;;;;;;5.50;5.50;;;;;16.84;59.02;99897.91;5078484;27;45481;-64
2022/09/29 13:58:30;;;;;;;;;6.00;6.00;;;;;16.98;58.96;99900.28;5089956;27;45521;-63
2022/09/29 14:00:59;;;;;;;;;7.75;7.75;;;;;17.13;58.22;99907.09;5089783;27;45389;-64
2022/09/29 14:03:24;;;;;;;;;10.00;8.75;;;;;17.21;58.22;99909.13;5092394;27;45517;-63
2022/09/29 14:05:56;;;;;;;;;8.00;8.00;;;;;17.29;58.51;99912.03;5080277;27;45514;-62
2022/09/29 14:08:29;;;;;;;;;7.25;7.25;;;;;17.31;57.94;99905.50;5095883;27;45302;-63
2022/09/29 14:11:03;;;;;;;;;7.00;6.25;;;;;17.31;56.13;99910.06;5096736;27;45591;-63
2022/09/29 14:13:39;;;;;;;;;8.00;7.00;;;;;17.31;55.44;99908.22;5080443;27;45884;-62
2022/09/29 14:16:22;;;;;;;;;4.50;4.50;;;;;17.33;54.81;99914.34;5078528;27;45380;-62
2022/09/29 14:19:01;;;;;;;;;7.00;5.00;;;;;17.29;55.39;99893.94;5087481;27;45287;-63
2022/09/29 14:21:50;;;;;;;;;7.00;7.00;;;;;17.38;56.03;99919.38;5098358;27;45360;-64
2022/09/29 14:24:34;;;;;;;;;6.75;6.75;;;;;17.45;57.12;99919.69;5102429;27;45469;-63
2022/09/29 14:27:18;;;;;;;;;10.50;8.00;;;;;17.60;56.92;99912.94;5102883;27;46348;-63
2022/09/29 14:29:56;;;;;;;;;8.50;8.50;;;;;17.85;56.51;99917.06;5102677;27;45543;-64
2022/09/29 14:32:55;;;;;;;;;11.25;10.00;;;;;18.02;55.80;99924.56;5102393;27;45372;-63
2022/09/29 14:35:26;;;;;;;;;10.75;8.75;;;;;18.18;55.35;99924.91;5097085;27;45469;-64
2022/09/29 14:37:59;;;;;;;;;8.00;8.00;;;;;18.46;53.21;99928.66;5101718;27;45356;-64
2022/09/29 14:40:28;;;;;;;;;10.25;10.25;;;;;18.92;51.56;99929.88;5089570;27;45329;-64
2022/09/29 14:43:12;;;;;;;;;12.00;8.75;;;;;19.51;49.53;99932.38;5081517;27;45318;-63
2022/09/29 14:51:59;;;;;;;;;9.75;8.00;;;;;22.74;42.20;99919.00;5080887;27;45393;-64
2022/09/29 14:54:45;;;;;;;;;8.50;8.50;;;;;23.68;40.20;99928.47;5088419;27;45504;-63
2022/09/29 14:57:33;;;;;;;;;8.50;8.50;;;;;24.38;37.17;99917.63;5101097;27;45385;-64
2022/09/29 15:00:13;;;;;;;;;5.75;5.75;;;;;25.05;36.93;99914.31;5101865;27;47222;-66
2022/09/29 15:02:48;;;;;;;;;5.00;5.00;;;;;25.50;34.86;99913.41;5102293;27;45543;-65
2022/09/29 15:05:29;;;;;;;;;4.75;4.75;;;;;25.84;33.82;99912.91;5083768;27;45273;-64
2022/09/29 15:07:56;;;;;;;;;2.00;2.00;;;;;26.18;32.57;99912.34;5101084;27;45637;-65
2022/09/29 15:10:31;;;;;;;;;5.00;2.75;;;;;26.41;32.09;99909.47;5101167;27;46294;-64
2022/09/29 15:13:28;;;;;;;;;8.50;5.75;;;;;26.64;31.90;99912.91;5101684;27;45496;-64
2022/09/29 15:16:01;;;;;;;;;3.25;3.25;;;;;26.81;31.33;99917.13;5089560;27;45230;-63
2022/09/29 15:18:39;;;;;;;;;3.25;3.25;;;;;26.88;30.28;99920.81;5081292;27;45412;-64
2022/09/29 15:21:26;;;;;;;;;4.00;4.00;;;;;26.97;31.03;99918.81;5087183;27;46237;-64
2022/09/29 15:24:08;;;;;;;;;4.00;3.00;;;;;27.13;31.23;99928.72;5090706;27;45313;-64
2022/09/29 15:26:35;;;;;;;;;3.50;3.50;;;;;27.14;29.80;99917.50;5081240;27;45295;-64
2022/09/29 15:29:05;;;;;;;;;5.50;3.50;;;;;27.11;29.78;99926.16;5096347;27;46147;-63
2022/09/29 15:31:35;;;;;;;;;1.00;1.00;;;;;27.15;30.40;99926.59;5094779;27;46076;-63
2022/09/29 15:34:03;;;;;;;;;2.00;2.00;;;;;27.22;30.70;99931.13;5095806;27;45335;-64
2022/09/29 15:36:35;;;;;;;;;3.50;2.00;;;;;27.19;30.28;99926.03;5080875;27;45398;-64
2022/09/29 15:39:06;;;;;;;;;3.00;3.00;;;;;27.27;30.01;99933.28;5098490;27;45465;-64
2022/09/29 15:41:33;;;;;;;;;3.00;3.00;;;;;27.28;30.21;99935.84;5080804;27;46950;-64
2022/09/29 15:44:16;;;;;;;;;2.75;2.50;;;;;27.23;30.80;99934.72;5081228;27;45341;-62
2022/09/29 15:46:56;;;;;;;;;5.00;3.75;;;;;27.19;30.77;99931.53;5079612;27;45351;-63
2022/09/29 15:49:26;;;;;;;;;3.75;3.75;;;;;27.14;31.17;99933.19;5088231;27;45508;-63
2022/09/29 15:52:12;;;;;;;;;5.25;5.00;;;;;27.04;30.60;99939.88;5100640;27;46966;-64
2022/09/29 15:54:43;;;;;;;;;5.25;4.00;;;;;26.87;30.13;99949.38;5101458;27;45453;-64
2022/09/29 15:57:42;;;;;;;;;3.75;2.50;;;;;26.67;30.96;99951.03;5101077;27;45479;-64
2022/09/29 16:00:20;;;;;;;;;4.50;3.50;;;;;26.56;31.17;99954.28;5100662;27;45476;-62
2022/09/29 16:02:49;;;;;;;;;3.00;3.00;;;;;26.28;31.49;99941.25;5101123;27;45324;-60
2022/09/29 16:05:20;;;;;;;;;4.75;3.00;;;;;26.02;32.25;99954.59;5083167;27;45356;-61
2022/09/29 16:07:56;;;;;;;;;3.00;3.00;;;;;25.80;32.34;99977.47;5089823;27;45176;-59
2022/09/29 16:10:28;;;;;;;;;5.00;4.00;;;;;25.50;32.37;99971.91;5100469;27;45325;-60
2022/09/29 16:12:57;;;;;;;;;3.50;3.50;;;;;25.16;33.46;99968.75;5078534;27;46095;-59
2022/09/29 16:18:01;;;;;;;;;4.00;4.00;;;;;24.48;34.29;99966.75;1426034;25;46537;-70
2022/09/29 16:20:30;;;;;;;;;5.75;4.00;;;;;24.21;33.95;99989.97;5070969;28;45511;-75
2022/09/29 16:23:04;;;;;;;;;2.00;1.50;;;;;23.95;34.48;99989.31;5055317;28;45421;-71
2022/09/29 16:25:30;;;;;;;;;3.00;3.00;;;;;23.59;34.14;99988.84;5061416;28;45722;-74
2022/09/29 16:27:57;;;;;;;;;2.00;2.00;;;;;23.43;34.29;100007.97;5074728;27;45315;-73
2022/09/29 16:30:30;;;;;;;;;1.75;1.75;;;;;23.21;34.54;100004.03;5073959;27;46155;-74
2022/09/29 16:33:28;;;;;;;;;1.75;1.75;;;;;22.98;34.78;99993.72;5072480;28;46206;-74
2022/09/29 16:35:53;;;;;;;;;2.75;2.75;;;;;22.83;34.86;100008.22;5054036;28;45545;-73
2022/09/29 16:38:22;;;;;;;;;1.75;1.75;;;;;22.72;34.58;100013.97;5054546;28;45383;-72
2022/09/29 16:40:49;;;;;;;;;2.00;2.00;;;;;22.69;33.79;100026.09;5055078;28;45569;-73
2022/09/29 16:43:25;;;;;;;;;0.75;0.75;;;;;22.45;33.57;100013.22;5055042;28;46216;-74
2022/09/29 16:45:54;;;;;;;;;3.00;0.50;;;;;22.37;34.54;100015.03;5054947;28;45281;-72
2022/09/29 16:48:21;;;;;;;;;1.75;1.75;;;;;22.27;34.04;100026.09;5055949;28;45174;-74
2022/09/29 16:50:47;;;;;;;;;2.75;2.75;;;;;22.03;35.22;100028.69;5061850;28;45602;-74
2022/09/29 16:53:25;;;;;;;;;1.25;1.25;;;;;21.68;35.26;100026.88;5074413;27;46657;-73
2022/09/29 16:56:17;;;;;;;;;2.75;1.00;;;;;21.36;35.39;100028.28;5074841;27;45345;-71
2022/09/29 16:58:43;;;;;;;;;2.75;2.75;;;;;20.96;36.71;100008.78;5091053;27;45359;-71
2022/09/29 17:01:11;;;;;;;;;3.75;3.75;;;;;20.84;36.22;100040.00;5070428;27;45440;-72
2022/09/29 17:03:40;;;;;;;;;10.00;10.00;;;;;20.47;37.15;100032.75;5066208;28;45448;-70
2022/09/29 17:06:07;;;;;;;;;26.50;24.75;;;;;20.28;38.15;100062.72;5065875;27;45398;-72
2022/09/29 17:08:33;;;;;;;;;2.75;2.50;;;;;20.03;37.88;100061.53;5065885;28;45321;-73
2022/09/29 17:10:59;;;;;;;;;28.50;28.50;;;;;19.85;39.51;100064.13;5058747;28;45348;-74
2022/09/29 17:13:30;;;;;;;;;10.75;9.25;;;;;19.68;39.58;100066.75;5056707;28;47070;-74
2022/09/29 17:15:55;;;;;;;;;11.00;9.50;;;;;19.40;39.78;100052.13;5053719;28;45414;-75
2022/09/29 17:18:23;;;;;;;;;19.25;18.25;;;;;19.27;40.69;100066.88;5053309;28;45478;-75
2022/09/29 17:20:49;;;;;;;;;2.50;2.50;;;;;19.08;39.95;100057.84;5069815;28;46233;-73
2022/09/29 17:23:14;;;;;;;;;2.50;2.50;;;;;18.93;40.63;100068.25;5075192;27;45686;-75
2022/09/29 17:25:43;;;;;;;;;2.75;2.75;;;;;18.68;40.84;100047.91;5062747;28;46873;-76
2022/09/29 17:28:16;;;;;;;;;5.50;3.50;;;;;18.71;41.14;100087.50;5055792;28;45382;-73
2022/09/29 17:30:44;;;;;;;;;4.00;4.00;;;;;18.53;41.55;100080.00;5055775;28;45306;-74
2022/09/29 17:33:14;;;;;;;;;2.50;2.50;;;;;18.37;42.07;100089.63;5055317;28;45471;-74
2022/09/29 17:35:42;;;;;;;;;4.00;4.00;;;;;18.25;41.59;100098.84;5069682;28;45381;-77
2022/09/29 17:38:10;;;;;;;;;4.00;2.25;;;;;18.14;42.29;100097.06;5052947;28;45547;-78
2022/09/29 17:41:01;;;;;;;;;3.25;3.25;;;;;17.91;42.08;100082.81;5055154;28;45524;-74
2022/09/29 17:43:27;;;;;;;;;5.00;5.00;;;;;17.93;42.64;100105.22;5053393;28;46340;-73
2022/09/29 17:45:54;;;;;;;;;4.00;3.00;;;;;17.80;43.45;100099.13;5053888;28;45684;-76
2022/09/29 17:48:21;;;;;;;;;5.00;4.00;;;;;17.71;43.63;100108.91;5057270;28;45599;-74
2022/09/29 17:50:49;;;;;;;;;8.75;5.00;;;;;17.63;43.82;100114.13;5071603;28;45562;-77
2022/09/29 17:53:16;;;;;;;;;2.75;2.00;;;;;17.54;43.83;100111.31;5068554;27;46135;-74
2022/09/29 17:55:44;;;;;;;;;3.75;3.00;;;;;17.48;44.03;100122.66;5068369;27;45596;-73
2022/09/29 17:58:14;;;;;;;;;4.25;4.25;;;;;17.30;44.50;100106.09;5074565;27;45365;-73
2022/09/29 18:00:41;;;;;;;;;7.50;7.50;;;;;17.25;45.26;100113.78;5073833;27;45444;-75
2022/09/29 18:03:11;;;;;;;;;4.00;4.00;;;;;17.12;45.36;100108.50;5072775;28;45374;-74
2022/09/29 18:05:39;;;;;;;;;5.25;4.00;;;;;17.12;46.07;100121.19;5073092;27;45393;-73
2022/09/29 18:08:06;;;;;;;;;3.00;3.00;;;;;17.08;45.78;100128.72;5065238;27;45480;-75
2022/09/29 18:11:01;;;;;;;;;3.75;3.75;;;;;16.98;46.60;100134.03;5074255;28;45779;-75
2022/09/29 18:13:30;;;;;;;;;6.25;6.25;;;;;16.95;47.17;100138.81;5061750;28;46144;-72
2022/09/29 18:15:57;;;;;;;;;12.25;9.75;;;;;16.87;47.05;100139.44;5073905;27;45615;-73
2022/09/29 18:18:23;;;;;;;;;12.25;12.25;;;;;16.92;47.68;100149.94;5073892;27;45445;-78
2022/09/29 18:20:49;;;;;;;;;17.00;16.50;;;;;16.89;47.53;100155.56;5073816;27;45314;-74
2022/09/29 18:23:16;;;;;;;;;22.50;20.00;;;;;16.80;48.36;100161.75;5073532;27;46288;-74